createdAt,value
2019-04-11T00:04:48.575Z,88.08
2019-04-11T00:10:12.385Z,88.13
2019-04-11T00:15:34.892Z,87.24
2019-04-11T00:21:08.740Z,87.26
2019-04-11T00:26:32.735Z,86.85
2019-04-11T00:31:54.898Z,87.13
2019-04-11T00:37:16.962Z,86.56
2019-04-11T00:42:38.848Z,86.80
2019-04-11T00:48:01.584Z,87.14
2019-04-11T00:53:23.065Z,87.51
2019-04-11T00:58:45.684Z,87.45
2019-04-11T01:04:08.181Z,87.42
2019-04-11T01:09:30.557Z,87.54
2019-04-11T01:14:53.140Z,88.47
2019-04-11T01:20:15.408Z,88.69
2019-04-11T01:25:38.957Z,88.80
2019-04-11T01:31:05.216Z,88.59
2019-04-11T01:36:31.174Z,88.31
2019-04-11T01:41:55.160Z,88.24
2019-04-11T01:47:30.936Z,88.49
2019-04-11T01:52:53.088Z,87.74
2019-04-11T01:58:14.724Z,86.42
2019-04-11T02:03:55.033Z,87.46
2019-04-11T02:09:16.836Z,86.68
2019-04-11T02:14:39.649Z,86.52
2019-04-11T02:20:01.391Z,86.55
2019-04-11T02:25:42.851Z,86.80
2019-04-11T02:31:05.562Z,87.09
2019-04-11T02:36:30.032Z,87.63
2019-04-11T02:41:52.800Z,87.51
2019-04-11T02:47:20.266Z,87.97
2019-04-11T02:52:39.950Z,88.35
2019-04-11T02:58:03.323Z,88.39
2019-04-11T03:03:25.509Z,88.36
2019-04-11T03:08:48.996Z,87.86
2019-04-11T03:14:12.170Z,87.80
2019-04-11T03:19:49.530Z,87.09
2019-04-11T03:25:00.351Z,87.20
2019-04-11T03:30:42.164Z,87.49
2019-04-11T03:36:38.675Z,88.07
2019-04-11T03:41:26.974Z,88.66
2019-04-11T03:46:54.219Z,88.43
2019-04-11T03:52:06.337Z,88.03
2019-04-11T03:57:29.910Z,87.80
2019-04-11T04:02:52.541Z,87.40
2019-04-11T04:08:20.322Z,86.78
2019-04-11T04:13:49.830Z,86.76
2019-04-11T04:19:37.712Z,86.19
2019-04-11T04:25:01.249Z,85.34
2019-04-11T04:30:27.779Z,84.82
2019-04-11T04:35:51.813Z,84.76
2019-04-11T04:41:27.911Z,84.99
2019-04-11T04:46:55.489Z,85.19
2019-04-11T04:52:14.069Z,85.04
2019-04-11T04:57:40.573Z,84.19
2019-04-11T05:03:02.682Z,84.03
2019-04-11T05:08:25.007Z,83.65
2019-04-11T05:13:50.451Z,83.37
2019-04-11T05:19:12.794Z,83.33
2019-04-11T05:24:36.837Z,82.70
2019-04-11T05:30:00.802Z,81.39
2019-04-11T05:35:25.503Z,81.73
2019-04-11T05:40:48.283Z,82.23
2019-04-11T05:46:23.946Z,81.51
2019-04-11T05:51:39.939Z,81.15
2019-04-11T05:57:03.081Z,80.65
2019-04-11T06:02:37.811Z,79.16
2019-04-11T06:08:02.579Z,79.96
2019-04-11T06:13:32.515Z,78.98
2019-04-11T06:19:28.994Z,78.15
2019-04-11T06:25:11.244Z,77.56
2019-04-11T06:30:56.871Z,77.26
2019-04-11T06:36:34.849Z,77.42
2019-04-11T06:42:25.617Z,76.92
2019-04-11T06:48:07.405Z,75.05
2019-04-11T06:53:42.043Z,75.18
2019-04-11T06:59:18.430Z,74.47
2019-04-11T07:04:54.404Z,74.10
2019-04-11T07:10:22.380Z,73.64
2019-04-11T07:15:50.830Z,73.00
2019-04-11T07:21:13.530Z,72.68
2019-04-11T07:26:38.567Z,72.06
2019-04-11T07:32:09.491Z,72.11
2019-04-11T07:37:34.357Z,72.19
2019-04-11T07:43:17.269Z,72.23
2019-04-11T07:48:44.628Z,73.24
2019-04-11T07:54:20.336Z,73.74
2019-04-11T08:00:00.556Z,74.56
2019-04-11T08:05:48.370Z,74.51
2019-04-11T08:11:36.603Z,75.37
2019-04-11T08:17:27.106Z,75.73
2019-04-11T08:22:41.326Z,76.67
2019-04-11T08:28:09.993Z,76.78
2019-04-11T08:33:35.112Z,77.18
2019-04-11T08:39:00.693Z,77.14
2019-04-11T08:44:41.904Z,77.77
2019-04-11T08:50:06.015Z,78.56
2019-04-11T08:55:55.836Z,79.38
2019-04-11T09:01:20.062Z,80.63
2019-04-11T09:06:41.685Z,81.60
2019-04-11T09:12:07.421Z,82.27
2019-04-11T09:17:55.215Z,82.53
2019-04-11T09:23:13.425Z,82.62
2019-04-11T09:28:44.071Z,81.99
2019-04-11T09:34:28.035Z,82.00
2019-04-11T09:40:17.349Z,81.75
2019-04-11T09:46:03.285Z,82.91
2019-04-11T09:51:47.859Z,82.90
2019-04-11T09:57:32.508Z,80.99
2019-04-11T10:03:19.688Z,82.02
2019-04-11T10:08:49.113Z,79.84
2019-04-11T10:14:17.502Z,77.99
2019-04-11T10:20:00.231Z,77.78
2019-04-11T10:25:37.096Z,76.58
2019-04-11T10:31:26.294Z,77.46
2019-04-11T10:37:09.604Z,77.41
2019-04-11T10:42:32.868Z,76.99
2019-04-11T10:48:45.273Z,76.77
2019-04-11T10:54:08.638Z,77.45
2019-04-11T10:59:32.550Z,77.00
2019-04-11T11:05:03.197Z,76.29
2019-04-11T11:16:45.455Z,78.93
2019-04-11T11:22:40.296Z,78.91
2019-04-11T11:28:03.207Z,79.82
2019-04-11T11:33:34.747Z,81.84
2019-04-11T11:39:17.255Z,81.52
2019-04-11T11:44:53.448Z,80.83
2019-04-11T11:50:19.803Z,80.85
2019-04-11T11:55:41.266Z,82.25
2019-04-11T12:01:08.498Z,81.51
2019-04-11T12:06:29.196Z,81.05
2019-04-11T13:05:16.334Z,89.92
2019-04-11T13:10:41.410Z,89.22
2019-04-11T13:16:12.734Z,88.67
2019-04-11T13:22:00.965Z,87.01
2019-04-11T13:27:28.642Z,81.35
2019-04-11T13:33:02.557Z,81.39
2019-04-11T13:38:31.304Z,80.74
2019-04-11T13:44:14.759Z,81.29
2019-04-11T13:49:52.591Z,81.25
2019-04-11T13:55:42.157Z,82.04
2019-04-11T15:08:48.886Z,81.11
2019-04-11T15:14:30.429Z,81.41
2019-04-11T15:20:23.591Z,82.03
2019-04-11T15:26:08.120Z,82.95
2019-04-11T15:31:48.198Z,84.14
2019-04-11T15:37:47.287Z,84.30
2019-04-11T15:43:43.419Z,84.23
2019-04-11T15:49:36.793Z,84.17
2019-04-11T15:55:17.474Z,83.84
2019-04-11T16:00:54.681Z,84.32
2019-04-11T16:06:38.976Z,84.57
2019-04-11T16:12:07.926Z,84.90
2019-04-11T16:17:51.838Z,85.51
2019-04-11T16:23:35.921Z,85.42
2019-04-11T16:29:11.267Z,85.32
2019-04-11T16:34:48.792Z,85.53
2019-04-11T16:40:35.714Z,85.58
2019-04-11T16:46:24.862Z,85.60
2019-04-11T16:51:46.845Z,85.69
2019-04-11T16:57:08.701Z,85.36
2019-04-11T17:02:30.445Z,82.30
2019-04-11T17:08:07.661Z,81.39
2019-04-11T17:13:32.188Z,79.00
2019-04-11T17:18:52.976Z,77.93
2019-04-11T17:24:16.744Z,76.40
2019-04-11T17:29:37.988Z,76.00
2019-04-11T17:35:01.995Z,77.87
2019-04-11T17:40:24.664Z,81.69
2019-04-11T17:45:46.419Z,82.83
2019-04-11T17:51:11.657Z,83.36
2019-04-11T17:56:33.508Z,85.54
2019-04-11T18:01:54.917Z,85.54
2019-04-11T18:07:17.734Z,85.52
2019-04-11T18:12:39.674Z,85.16
2019-04-11T18:18:03.147Z,84.79
2019-04-11T18:23:26.402Z,84.66
2019-04-11T18:28:51.722Z,84.01
2019-04-11T18:34:12.666Z,83.38
2019-04-11T18:39:35.922Z,82.94
2019-04-11T18:44:58.413Z,81.73
2019-04-11T18:50:22.785Z,82.87
2019-04-11T18:55:44.651Z,81.26
2019-04-11T19:01:09.053Z,81.63
2019-04-11T19:06:30.667Z,83.82
2019-04-11T19:11:52.726Z,82.85
2019-04-11T19:17:15.840Z,83.59
2019-04-11T19:22:38.560Z,85.53
2019-04-11T19:28:00.834Z,85.53
2019-04-11T19:33:22.764Z,85.60
2019-04-11T19:38:44.954Z,85.86
2019-04-11T19:44:07.122Z,84.88
2019-04-11T19:49:29.673Z,84.90
2019-04-11T19:54:52.180Z,85.34
2019-04-11T20:00:14.148Z,86.19
2019-04-11T20:05:35.875Z,85.66
2019-04-11T20:11:01.078Z,85.70
2019-04-11T20:16:21.157Z,85.15
2019-04-11T20:21:43.079Z,84.36
2019-04-11T20:27:04.987Z,84.93
2019-04-11T20:32:27.117Z,85.14
2019-04-11T20:37:49.152Z,84.56
2019-04-11T20:43:11.839Z,84.62
2019-04-11T20:48:35.285Z,84.95
2019-04-11T20:53:57.785Z,84.50
2019-04-11T20:59:20.032Z,82.93
2019-04-11T21:04:41.681Z,85.05
2019-04-11T21:10:04.680Z,84.39
2019-04-11T21:15:26.520Z,84.54
2019-04-11T21:20:48.748Z,84.27
2019-04-11T21:26:10.183Z,84.85
2019-04-11T21:31:32.044Z,85.46
2019-04-11T21:36:53.899Z,85.42
2019-04-11T21:42:16.148Z,86.27
2019-04-11T21:47:38.122Z,84.47
2019-04-11T21:53:00.157Z,85.37
2019-04-11T21:58:22.174Z,86.35
2019-04-11T22:03:44.590Z,86.36
2019-04-11T22:09:08.299Z,86.10
2019-04-11T22:14:30.007Z,85.61
2019-04-11T22:19:51.657Z,85.71
2019-04-11T22:25:13.438Z,85.01
2019-04-11T22:30:35.521Z,84.78
2019-04-11T22:35:59.317Z,84.75
2019-04-11T22:41:21.333Z,84.43
2019-04-11T22:46:43.350Z,83.81
2019-04-11T22:52:05.132Z,84.08
2019-04-11T22:57:26.780Z,83.47
2019-04-11T23:08:48.976Z,83.98
2019-04-11T23:14:11.360Z,84.20
2019-04-11T23:19:33.064Z,84.53
2019-04-11T23:24:54.436Z,84.87
2019-04-11T23:30:18.423Z,85.02
2019-04-11T23:35:39.879Z,85.11
2019-04-11T23:41:01.543Z,84.72
2019-04-11T23:46:23.787Z,84.55
2019-04-11T23:51:45.722Z,84.75
2019-04-11T23:57:07.509Z,85.31
